METAR Analyzer

一覧表示

Hello, Guest. (Login)

EDDF/FRA  -  フランクフルト

観測日時
2021-01-27 01:20 (UTC) (25分前)
気温
1
露点
-2
湿数
3
相対湿度
80.3%
QNH
1019hPa
推定現地気圧
1005.7hPa
推定海面気圧
1019.7hPa
体感温度
-8.9
(無風時)
5.2
HI
-0.7
気温前日比
+0.5
体感温度前日比
+3.3
HI前日比
+0.5
水平視程
>10000m
鉛直視程
データなし
雲底高度
No dense clouds
V/I
VMC (VFR)
RVR
No RVR data
卓越風
5kt from 200°
ガスト
No gust
降水
報告なし
その他の天気
報告なし
報告なし

EDDF 270120Z 20005KT CAVOK 01/M02 Q1019 R25L/19//95 R25C/19//95 R18/19//95 NOSIG

EDDM/MUC  -  ミュンヘン

観測日時
2021-01-27 01:20 (UTC) (25分前)
気温
-2
露点
-4
湿数
2
相対湿度
86.2%
QNH
1019hPa
推定現地気圧
965.5hPa
推定海面気圧
1021.9hPa
体感温度
-19.3
(無風時)
2.5
HI
-3.9
気温前日比
+0.5
体感温度前日比
-5.9
HI前日比
+0.5
水平視程
>10000m
鉛直視程
データなし
雲底高度
No dense clouds
V/I
VMC (VFR)
RVR
No RVR data
卓越風
13kt from 260°
ガスト
No gust
降水
報告なし
その他の天気
報告なし
少しの雲 @ 1700ft AGL / 散在する雲 @ 3700ft AGL

EDDM 270120Z 26013KT 9999 FEW017 SCT037 M02/M04 Q1019 R26L/290095 NOSIG

EDDL/DUS  -  デュッセルドルフ

観測日時
2021-01-27 01:20 (UTC) (25分前)
気温
1
露点
-1
湿数
2
相対湿度
86.5%
QNH
1016hPa
推定現地気圧
1010.6hPa
推定海面気圧
1016.3hPa
体感温度
-13
(無風時)
5
HI
-0.6
気温前日比
-1
体感温度前日比
-1.2
HI前日比
-1.1
水平視程
>10000m
鉛直視程
データなし
雲底高度
No dense clouds
V/I
VMC (VFR)
RVR
No RVR data
卓越風
9kt from 170°
ガスト
No gust
降水
報告なし
その他の天気
報告なし
報告なし

EDDL 270120Z 17009KT CAVOK 01/M01 Q1016 NOSIG

LFPG/CDG  -  パリ=シャルル・ド・ゴール

観測日時
2021-01-27 01:00 (UTC) (45分前)
気温
2
露点
0
湿数
2
相対湿度
86.6%
QNH
1016hPa
推定現地気圧
1001.7hPa
推定海面気圧
1016.6hPa
体感温度
-13.8
(無風時)
5.9
HI
0.5
気温前日比
+1
体感温度前日比
-0.5
HI前日比
+1.1
水平視程
8000m / 一時 4000m
鉛直視程
データなし
雲底高度
4100ft AGL
V/I
VMC (VFR)
RVR
No RVR data
卓越風
13kt from 190°
ガスト
No gust
降水
中程度の雨
降水 (一時)
弱い雪・雨
その他の天気
報告なし
隙間のある雲 @ 4100ft AGL

LFPG 270100Z 19013KT 8000 RA BKN041 02/00 Q1016 TEMPO 4000 -SNRA

EGLL/LHR  -  ロンドン・ヒースロー

観測日時
2021-01-27 01:20 (UTC) (25分前)
気温
7
露点
6
湿数
1
相対湿度
93.3%
QNH
1010hPa
推定現地気圧
1007.0hPa
推定海面気圧
1010.1hPa
体感温度
0.3
(無風時)
10
HI
6.2
気温前日比
+8
体感温度前日比
+10.8
HI前日比
+9
水平視程
1900m / 一時 3500m
鉛直視程
データなし
雲底高度
200ft AGL / 一時 300ft AGL
V/I
SVMC (SVFR)
RVR (R27R)
800m
卓越風
3kt from 250°
ガスト
No gust
降水
報告なし
降水 (一時)
中程度の霧雨
その他の天気
もや
全天を覆う雲 @ 200ft AGL

EGLL 270120Z AUTO 25003KT 1900 R27R/0800 BR OVC002 07/06 Q1010 TEMPO 3500 DZ BKN003

9.3msec